| time (UTC) | temp C | wind direction | speed KPH | gust KPH | rain 1hr cm | rain 24hr cm | rain mn cm | humidity % | barometer mb |
| 20260507055603 | 5 | 98 | 3.2 | 9.7 | 0.00 | 0.00 | 0.00 | 60 | 1013.9 |
| 20260507055104 | 5 | 96 | 1.6 | 4.8 | 0.00 | 0.00 | 0.00 | 59 | 1013.9 |
| 20260507054103 | 5 | 88 | 1.6 | 4.8 | 0.00 | 0.00 | 0.00 | 59 | 1013.9 |
| 20260507053603 | 5 | 68 | 0.0 | 1.6 | 0.00 | 0.00 | 0.00 | 59 | 1013.9 |
| 20260507053103 | 5 | 67 | 1.6 | 4.8 | 0.00 | 0.00 | 0.00 | 59 | 1013.9 |
| 20260507051603 | 6 | 107 | 0.0 | 4.8 | 0.00 | 0.00 | 0.00 | 57 | 1013.9 |
| 20260507051103 | 6 | 115 | 1.6 | 4.8 | 0.00 | 0.00 | 0.00 | 57 | 1013.9 |
| 20260507050603 | 6 | 118 | 1.6 | 4.8 | 0.00 | 0.00 | 0.00 | 57 | 1013.9 |
| 20260507050104 | 6 | 120 | 1.6 | 4.8 | 0.00 | 0.00 | 0.00 | 57 | 1014.2 |
| 20260507045603 | 6 | 111 | 1.6 | 9.7 | 0.00 | 0.00 | 0.00 | 56 | 1014.2 |
| 20260507045103 | 6 | 103 | 0.0 | 4.8 | 0.00 | 0.00 | 0.00 | 56 | 1014.2 |
| 20260507044104 | 6 | 111 | 3.2 | 9.7 | 0.00 | 0.00 | 0.00 | 55 | 1014.2 |
| 20260507043603 | 6 | 117 | 1.6 | 8.0 | 0.00 | 0.00 | 0.00 | 55 | 1014.2 |
| 20260507043103 | 6 | 109 | 0.0 | 4.8 | 0.00 | 0.00 | 0.00 | 55 | 1014.2 |
| 20260507042103 | 6 | 118 | 1.6 | 14.5 | 0.00 | 0.00 | 0.00 | 55 | 1014.2 |
| 20260507041603 | 6 | 102 | 1.6 | 4.8 | 0.00 | 0.00 | 0.00 | 55 | 1014.9 |
| 20260507041103 | 6 | 108 | 1.6 | 9.7 | 0.00 | 0.00 | 0.00 | 55 | 1014.9 |
| 20260507040603 | 6 | 113 | 3.2 | 11.3 | 0.00 | 0.00 | 0.00 | 55 | 1014.9 |
| 20260507040104 | 6 | 95 | 3.2 | 9.7 | 0.00 | 0.00 | 0.00 | 55 | 1014.9 |
| 20260507035603 | 6 | 105 | 4.8 | 11.3 | 0.00 | 0.00 | 0.00 | 55 | 1014.9 |
| 20260507035103 | 7 | 105 | 1.6 | 11.3 | 0.00 | 0.00 | 0.00 | 55 | 1014.9 |
| 20260507034603 | 7 | 80 | 1.6 | 4.8 | 0.00 | 0.00 | 0.00 | 54 | 1014.9 |
| 20260507034103 | 7 | 101 | 1.6 | 4.8 | 0.00 | 0.00 | 0.00 | 54 | 1014.9 |
| 20260507033603 | 7 | 98 | 3.2 | 9.7 | 0.00 | 0.00 | 0.00 | 54 | 1014.9 |
| 20260507033103 | 7 | 100 | 3.2 | 9.7 | 0.00 | 0.00 | 0.00 | 54 | 1014.9 |
| 20260507032604 | 7 | 96 | 3.2 | 9.7 | 0.00 | 0.00 | 0.00 | 53 | 1014.9 |
| 20260507032103 | 7 | 109 | 1.6 | 3.2 | 0.00 | 0.00 | 0.00 | 53 | 1014.9 |
| 20260507031604 | 7 | 81 | 1.6 | 4.8 | 0.00 | 0.00 | 0.00 | 52 | 1014.9 |
| 20260507031103 | 7 | 80 | 1.6 | 4.8 | 0.00 | 0.00 | 0.00 | 51 | 1014.9 |
| 20260507030603 | 8 | 78 | 1.6 | 4.8 | 0.00 | 0.00 | 0.00 | 51 | 1014.9 |
| 20260507025603 | 8 | 73 | 3.2 | 4.8 | 0.00 | 0.00 | 0.00 | 50 | 1014.6 |
| 20260507025103 | 8 | 101 | 0.0 | 4.8 | 0.00 | 0.00 | 0.00 | 50 | 1014.6 |
| 20260507024603 | 8 | 101 | 1.6 | 4.8 | 0.00 | 0.00 | 0.00 | 49 | 1014.6 |
| 20260507024103 | 8 | 101 | 1.6 | 4.8 | 0.00 | 0.00 | 0.00 | 49 | 1014.6 |
| 20260507023603 | 8 | 101 | 1.6 | 4.8 | 0.00 | 0.00 | 0.00 | 49 | 1014.6 |
| 20260507023103 | 8 | 101 | 1.6 | 3.2 | 0.00 | 0.00 | 0.00 | 49 | 1014.6 |
| 20260507022603 | 8 | 52 | 1.6 | 4.8 | 0.00 | 0.00 | 0.00 | 48 | 1014.6 |
| 20260507022103 | 8 | 51 | 0.0 | 4.8 | 0.00 | 0.00 | 0.00 | 49 | 1014.6 |
| 20260507021603 | 9 | 49 | 1.6 | 4.8 | 0.00 | 0.00 | 0.00 | 49 | 1014.6 |
| 20260507021103 | 9 | 47 | 3.2 | 4.8 | 0.00 | 0.00 | 0.00 | 50 | 1014.6 |
| 20260507020603 | 9 | 60 | 1.6 | 4.8 | 0.00 | 0.00 | 0.00 | 49 | 1014.6 |
| 20260507020103 | 9 | 76 | 1.6 | 4.8 | 0.00 | 0.00 | 0.00 | 49 | 1014.6 |
| 20260507015603 | 9 | 73 | 1.6 | 4.8 | 0.00 | 0.00 | 0.00 | 48 | 1014.6 |
| 20260507015104 | 9 | 74 | 0.0 | 4.8 | 0.00 | 0.00 | 0.00 | 49 | 1014.6 |
| 20260507014604 | 10 | 24 | 1.6 | 3.2 | 0.00 | 0.00 | 0.00 | 49 | 1014.6 |
| 20260507013603 | 10 | 22 | 0.0 | 0.0 | 0.00 | 0.00 | 0.00 | 48 | 1014.6 |
| 20260507013104 | 10 | 22 | 0.0 | 0.0 | 0.00 | 0.00 | 0.00 | 48 | 1014.6 |
| 20260507012603 | 10 | 22 | 1.6 | 3.2 | 0.00 | 0.00 | 0.00 | 47 | 1014.6 |
| 20260507012103 | 10 | 22 | 1.6 | 4.8 | 0.00 | 0.00 | 0.00 | 47 | 1014.6 |
| 20260507011603 | 10 | 22 | 3.2 | 4.8 | 0.00 | 0.00 | 0.00 | 46 | 1014.6 |
| 20260507011103 | 10 | 355 | 3.2 | 4.8 | 0.00 | 0.00 | 0.00 | 45 | 1014.6 |
| 20260507010603 | 10 | 355 | 1.6 | 4.8 | 0.00 | 0.00 | 0.00 | 45 | 1014.6 |
| 20260507005603 | 10 | 1 | 4.8 | 8.0 | 0.00 | 0.00 | 0.00 | 44 | 1014.9 |
| 20260507005103 | 10 | 2 | 4.8 | 11.3 | 0.00 | 0.00 | 0.00 | 44 | 1014.9 |
| 20260507004603 | 10 | 0 | 3.2 | 4.8 | 0.00 | 0.00 | 0.00 | 45 | 1014.9 |
| 20260507004103 | 10 | 0 | 4.8 | 11.3 | 0.00 | 0.00 | 0.00 | 45 | 1014.9 |
| 20260507003603 | 10 | 351 | 4.8 | 9.7 | 0.00 | 0.00 | 0.00 | 45 | 1014.9 |
| 20260507002103 | 11 | 348 | 6.4 | 12.9 | 0.00 | 0.00 | 0.00 | 43 | 1014.9 |
| 20260507001603 | 11 | 355 | 8.0 | 12.9 | 0.00 | 0.00 | 0.00 | 43 | 1014.9 |
| 20260507001103 | 11 | 351 | 9.7 | 16.1 | 0.00 | 0.00 | 0.00 | 42 | 1014.9 |
| 20260507000603 | 11 | 320 | 11.3 | 20.9 | 0.00 | 0.00 | 0.00 | 41 | 1014.9 |
| 20260506235603 | 11 | 306 | 9.7 | 19.3 | 0.00 | 0.00 | 0.00 | 41 | 1014.9 |
| 20260506235103 | 11 | 313 | 11.3 | 19.3 | 0.00 | 0.00 | 0.00 | 41 | 1014.9 |
| 20260506234603 | 11 | 308 | 9.7 | 25.7 | 0.00 | 0.00 | 0.00 | 41 | 1014.9 |
| 20260506234103 | 11 | 301 | 9.7 | 19.3 | 0.00 | 0.00 | 0.00 | 41 | 1014.9 |
| 20260506233603 | 11 | 306 | 9.7 | 19.3 | 0.00 | 0.00 | 0.00 | 41 | 1014.9 |
| 20260506232103 | 11 | 294 | 8.0 | 19.3 | 0.00 | 0.00 | 0.00 | 42 | 1014.9 |
| 20260506231603 | 11 | 308 | 9.7 | 20.9 | 0.00 | 0.00 | 0.00 | 41 | 1014.9 |
| 20260506231103 | 11 | 330 | 19.3 | 25.7 | 0.00 | 0.00 | 0.00 | 40 | 1014.9 |
| 20260506230603 | 11 | 325 | 11.3 | 20.9 | 0.00 | 0.00 | 0.00 | 42 | 1014.9 |
| 20260506230103 | 11 | 254 | 9.7 | 19.3 | 0.00 | 0.00 | 0.00 | 42 | 1015.6 |
| 20260506225603 | 11 | 281 | 11.3 | 22.5 | 0.00 | 0.00 | 0.00 | 41 | 1015.6 |
| 20260506225103 | 11 | 316 | 9.7 | 19.3 | 0.00 | 0.00 | 0.00 | 43 | 1015.6 |
| 20260506224603 | 10 | 296 | 11.3 | 27.4 | 0.00 | 0.00 | 0.00 | 43 | 1015.6 |
| 20260506224103 | 11 | 299 | 11.3 | 24.1 | 0.00 | 0.00 | 0.00 | 42 | 1015.6 |
| 20260506223603 | 11 | 316 | 14.5 | 27.4 | 0.00 | 0.00 | 0.00 | 43 | 1015.6 |
| 20260506223103 | 10 | 304 | 11.3 | 24.1 | 0.00 | 0.00 | 0.00 | 43 | 1015.6 |
| 20260506222603 | 10 | 315 | 14.5 | 25.7 | 0.00 | 0.00 | 0.00 | 42 | 1015.6 |
| 20260506221603 | 11 | 303 | 14.5 | 29.0 | 0.00 | 0.00 | 0.00 | 42 | 1015.6 |
| 20260506221103 | 11 | 296 | 11.3 | 22.5 | 0.00 | 0.00 | 0.00 | 42 | 1015.6 |
| 20260506215603 | 10 | 289 | 12.9 | 22.5 | 0.00 | 0.00 | 0.00 | 43 | 1016.3 |
| 20260506215104 | 10 | 274 | 11.3 | 24.1 | 0.00 | 0.00 | 0.00 | 43 | 1016.3 |
| 20260506214603 | 10 | 293 | 9.7 | 19.3 | 0.00 | 0.00 | 0.00 | 44 | 1016.3 |
| 20260506214104 | 10 | 270 | 11.3 | 22.5 | 0.00 | 0.00 | 0.00 | 43 | 1016.3 |
| 20260506213603 | 10 | 261 | 14.5 | 22.5 | 0.00 | 0.00 | 0.00 | 43 | 1016.3 |
| 20260506213103 | 10 | 266 | 14.5 | 27.4 | 0.00 | 0.00 | 0.00 | 43 | 1016.3 |
| 20260506212603 | 10 | 293 | 14.5 | 32.2 | 0.00 | 0.00 | 0.00 | 43 | 1016.3 |
| 20260506211103 | 10 | 313 | 16.1 | 27.4 | 0.00 | 0.00 | 0.00 | 43 | 1016.3 |
| 20260506210103 | 10 | 285 | 19.3 | 25.7 | 0.00 | 0.00 | 0.00 | 43 | 1016.9 |
| 20260506205103 | 10 | 274 | 9.7 | 32.2 | 0.00 | 0.00 | 0.00 | 44 | 1016.9 |
| 20260506204104 | 10 | 303 | 11.3 | 24.1 | 0.00 | 0.00 | 0.00 | 45 | 1016.9 |
| 20260506203603 | 10 | 277 | 16.1 | 27.4 | 0.00 | 0.00 | 0.00 | 44 | 1016.9 |
| 20260506203103 | 9 | 299 | 12.9 | 29.0 | 0.00 | 0.00 | 0.00 | 44 | 1016.9 |
| 20260506202603 | 9 | 319 | 19.3 | 32.2 | 0.00 | 0.00 | 0.00 | 44 | 1016.9 |
| 20260506202103 | 10 | 316 | 16.1 | 35.4 | 0.00 | 0.00 | 0.00 | 44 | 1016.9 |
| 20260506201103 | 9 | 286 | 16.1 | 32.2 | 0.00 | 0.00 | 0.00 | 45 | 1016.9 |
| 20260506194103 | 8 | 279 | 20.9 | 32.2 | 0.00 | 0.00 | 0.00 | 46 | 1017.3 |
| 20260506193104 | 8 | 296 | 16.1 | 32.2 | 0.00 | 0.00 | 0.00 | 45 | 1017.3 |
| 20260506192603 | 8 | 288 | 11.3 | 22.5 | 0.00 | 0.00 | 0.00 | 46 | 1017.3 |
| 20260506192103 | 8 | 282 | 16.1 | 32.2 | 0.00 | 0.00 | 0.00 | 45 | 1017.3 |
| 20260506191603 | 8 | 285 | 14.5 | 35.4 | 0.00 | 0.00 | 0.00 | 46 | 1017.3 |
| 20260506191104 | 8 | 301 | 16.1 | 32.2 | 0.00 | 0.00 | 0.00 | 46 | 1017.3 |
| 20260506190603 | 8 | 292 | 17.7 | 32.2 | 0.00 | 0.00 | 0.00 | 47 | 1017.3 |
| 20260506185603 | 8 | 301 | 11.3 | 25.7 | 0.00 | 0.00 | 0.00 | 47 | 1017.6 |
| 20260506185103 | 8 | 310 | 16.1 | 29.0 | 0.00 | 0.00 | 0.00 | 48 | 1017.6 |
| 20260506184103 | 7 | 309 | 14.5 | 32.2 | 0.00 | 0.00 | 0.00 | 48 | 1017.6 |
| 20260506183603 | 7 | 288 | 19.3 | 27.4 | 0.00 | 0.00 | 0.00 | 48 | 1017.6 |
| 20260506183103 | 7 | 309 | 16.1 | 27.4 | 0.00 | 0.00 | 0.00 | 49 | 1017.6 |
| 20260506182603 | 7 | 297 | 12.9 | 32.2 | 0.00 | 0.00 | 0.00 | 48 | 1017.6 |
| 20260506182103 | 7 | 314 | 14.5 | 29.0 | 0.00 | 0.00 | 0.00 | 49 | 1017.6 |
| 20260506181603 | 7 | 320 | 14.5 | 24.1 | 0.00 | 0.00 | 0.00 | 49 | 1017.6 |
| 20260506181103 | 7 | 321 | 17.7 | 27.4 | 0.00 | 0.00 | 0.00 | 50 | 1017.6 |
| 20260506180603 | 7 | 310 | 17.7 | 25.7 | 0.00 | 0.00 | 0.00 | 49 | 1017.6 |
| 20260506174603 | 7 | 315 | 12.9 | 22.5 | 0.00 | 0.00 | 0.00 | 50 | 1017.9 |
| 20260506174103 | 7 | 312 | 22.5 | 33.8 | 0.00 | 0.00 | 0.00 | 50 | 1017.9 |
| 20260506173603 | 7 | 332 | 16.1 | 32.2 | 0.00 | 0.00 | 0.00 | 50 | 1017.9 |
| 20260506173103 | 6 | 299 | 14.5 | 29.0 | 0.00 | 0.00 | 0.00 | 50 | 1017.9 |
| 20260506172603 | 6 | 310 | 20.9 | 32.2 | 0.00 | 0.00 | 0.00 | 50 | 1017.9 |
| 20260506172103 | 6 | 321 | 20.9 | 33.8 | 0.00 | 0.00 | 0.00 | 50 | 1017.9 |
| 20260506171604 | 6 | 317 | 16.1 | 27.4 | 0.00 | 0.00 | 0.00 | 50 | 1017.9 |
| 20260506171103 | 6 | 324 | 20.9 | 29.0 | 0.00 | 0.00 | 0.00 | 50 | 1017.9 |
| 20260506170603 | 6 | 312 | 17.7 | 37.0 | 0.00 | 0.00 | 0.00 | 51 | 1017.9 |
| 20260506170103 | 6 | 317 | 14.5 | 32.2 | 0.00 | 0.00 | 0.00 | 51 | 1017.9 |
| 20260506165603 | 6 | 296 | 12.9 | 32.2 | 0.00 | 0.00 | 0.00 | 51 | 1017.9 |
| 20260506165103 | 6 | 324 | 17.7 | 32.2 | 0.00 | 0.00 | 0.00 | 50 | 1017.9 |
| 20260506164603 | 6 | 326 | 14.5 | 32.2 | 0.00 | 0.00 | 0.00 | 51 | 1017.9 |
| 20260506164103 | 6 | 315 | 16.1 | 24.1 | 0.00 | 0.00 | 0.00 | 51 | 1017.9 |
| 20260506163603 | 6 | 324 | 12.9 | 27.4 | 0.00 | 0.00 | 0.00 | 52 | 1017.9 |
| 20260506163104 | 6 | 331 | 22.5 | 32.2 | 0.00 | 0.00 | 0.00 | 51 | 1017.9 |
| 20260506162603 | 6 | 276 | 16.1 | 25.7 | 0.00 | 0.00 | 0.00 | 52 | 1017.9 |
| 20260506161603 | 6 | 303 | 11.3 | 25.7 | 0.00 | 0.00 | 0.00 | 52 | 1017.9 |
| 20260506161103 | 6 | 297 | 16.1 | 29.0 | 0.00 | 0.00 | 0.00 | 52 | 1017.9 |
| 20260506160603 | 6 | 311 | 12.9 | 29.0 | 0.00 | 0.00 | 0.00 | 53 | 1017.9 |
| 20260506160103 | 6 | 291 | 11.3 | 24.1 | 0.00 | 0.00 | 0.00 | 52 | 1017.9 |
| 20260506155604 | 6 | 332 | 14.5 | 32.2 | 0.00 | 0.00 | 0.00 | 53 | 1017.9 |
| 20260506155103 | 6 | 327 | 16.1 | 33.8 | 0.00 | 0.00 | 0.00 | 53 | 1017.9 |
| 20260506154103 | 5 | 299 | 8.0 | 27.4 | 0.00 | 0.00 | 0.00 | 54 | 1017.9 |
| 20260506153603 | 5 | 343 | 17.7 | 27.4 | 0.00 | 0.00 | 0.00 | 54 | 1017.9 |
| 20260506153103 | 5 | 328 | 16.1 | 25.7 | 0.00 | 0.00 | 0.00 | 54 | 1017.9 |
| 20260506152603 | 5 | 333 | 14.5 | 24.1 | 0.00 | 0.00 | 0.00 | 54 | 1017.9 |
| 20260506152103 | 5 | 315 | 12.9 | 19.3 | 0.00 | 0.00 | 0.00 | 54 | 1017.9 |
| 20260506151603 | 5 | 307 | 11.3 | 22.5 | 0.00 | 0.00 | 0.00 | 55 | 1017.9 |
| 20260506151103 | 5 | 303 | 11.3 | 19.3 | 0.00 | 0.00 | 0.00 | 55 | 1017.9 |
| 20260506150603 | 5 | 309 | 11.3 | 22.5 | 0.00 | 0.00 | 0.00 | 56 | 1017.9 |
| 20260506145603 | 5 | 318 | 16.1 | 25.7 | 0.00 | 0.00 | 0.00 | 56 | 1017.9 |
| 20260506145103 | 5 | 302 | 11.3 | 22.5 | 0.00 | 0.00 | 0.00 | 56 | 1017.9 |
| 20260506144603 | 5 | 311 | 11.3 | 20.9 | 0.00 | 0.00 | 0.00 | 57 | 1017.9 |
| 20260506143603 | 5 | 308 | 16.1 | 25.7 | 0.00 | 0.00 | 0.00 | 56 | 1017.9 |
| 20260506143103 | 5 | 332 | 16.1 | 20.9 | 0.00 | 0.00 | 0.00 | 56 | 1017.9 |
| 20260506142603 | 5 | 308 | 16.1 | 24.1 | 0.00 | 0.00 | 0.00 | 56 | 1017.9 |
| 20260506142103 | 5 | 300 | 11.3 | 22.5 | 0.00 | 0.00 | 0.00 | 57 | 1017.9 |
| 20260506141603 | 5 | 291 | 11.3 | 20.9 | 0.00 | 0.00 | 0.00 | 58 | 1017.9 |
| 20260506141103 | 5 | 330 | 8.0 | 22.5 | 0.00 | 0.00 | 0.00 | 60 | 1017.9 |
| 20260506140603 | 5 | 288 | 8.0 | 20.9 | 0.00 | 0.00 | 0.00 | 59 | 1017.9 |
| 20260506135603 | 5 | 320 | 11.3 | 19.3 | 0.00 | 0.00 | 0.00 | 60 | 1017.6 |
| 20260506135103 | 4 | 305 | 11.3 | 22.5 | 0.00 | 0.00 | 0.00 | 60 | 1017.6 |
| 20260506134603 | 4 | 303 | 11.3 | 19.3 | 0.00 | 0.00 | 0.00 | 61 | 1017.6 |
| 20260506134103 | 4 | 322 | 8.0 | 12.9 | 0.00 | 0.00 | 0.00 | 62 | 1017.6 |
| 20260506133603 | 4 | 332 | 11.3 | 16.1 | 0.00 | 0.00 | 0.00 | 61 | 1017.6 |
| 20260506133103 | 4 | 299 | 8.0 | 14.5 | 0.00 | 0.00 | 0.00 | 61 | 1017.6 |
| 20260506132603 | 4 | 287 | 8.0 | 16.1 | 0.00 | 0.00 | 0.00 | 61 | 1017.6 |
| 20260506131603 | 3 | 313 | 8.0 | 14.5 | 0.00 | 0.00 | 0.00 | 62 | 1017.6 |
| 20260506130604 | 3 | 313 | 3.2 | 9.7 | 0.00 | 0.00 | 0.00 | 64 | 1017.6 |
| 20260506124604 | 3 | 325 | 1.6 | 8.0 | 0.00 | 0.00 | 0.00 | 66 | 1016.9 |
| 20260506124104 | 3 | 324 | 1.6 | 4.8 | 0.00 | 0.00 | 0.00 | 67 | 1016.9 |
| 20260506123603 | 3 | 318 | 1.6 | 4.8 | 0.00 | 0.00 | 0.00 | 67 | 1016.9 |
| 20260506123103 | 2 | 329 | 1.6 | 4.8 | 0.00 | 0.00 | 0.00 | 67 | 1016.9 |
| 20260506122103 | 2 | 297 | 0.0 | 0.0 | 0.00 | 0.00 | 0.00 | 69 | 1016.9 |
| 20260506121603 | 2 | 297 | 0.0 | 1.6 | 0.00 | 0.00 | 0.00 | 69 | 1016.9 |
| 20260506121103 | 2 | 297 | 1.6 | 4.8 | 0.00 | 0.00 | 0.00 | 70 | 1016.9 |
| 20260506120603 | 2 | 297 | 0.0 | 4.8 | 0.00 | 0.00 | 0.00 | 70 | 1016.9 |
| 20260506120103 | 2 | 290 | 1.6 | 4.8 | 0.00 | 0.00 | 0.00 | 70 | 1016.3 |
| 20260506115604 | 2 | 299 | 1.6 | 11.3 | 0.00 | 0.00 | 0.00 | 70 | 1016.3 |
| 20260506115103 | 2 | 317 | 3.2 | 4.8 | 0.00 | 0.00 | 0.00 | 70 | 1016.3 |
| 20260506114103 | 2 | 283 | 3.2 | 11.3 | 0.00 | 0.00 | 0.00 | 70 | 1016.3 |
| 20260506113603 | 2 | 295 | 4.8 | 11.3 | 0.00 | 0.00 | 0.00 | 70 | 1016.3 |
| 20260506113103 | 2 | 282 | 3.2 | 4.8 | 0.00 | 0.00 | 0.00 | 70 | 1016.3 |
| 20260506112603 | 2 | 305 | 1.6 | 4.8 | 0.00 | 0.00 | 0.00 | 70 | 1016.3 |
| 20260506112104 | 2 | 288 | 0.0 | 3.2 | 0.00 | 0.00 | 0.00 | 70 | 1016.3 |
| 20260506111603 | 2 | 288 | 0.0 | 1.6 | 0.00 | 0.00 | 0.00 | 70 | 1016.3 |
| 20260506111103 | 2 | 288 | 0.0 | 1.6 | 0.00 | 0.00 | 0.00 | 71 | 1016.3 |
| 20260506110604 | 2 | 312 | 1.6 | 4.8 | 0.00 | 0.00 | 0.00 | 71 | 1016.3 |
| 20260506105603 | 2 | 311 | 0.0 | 1.6 | 0.00 | 0.00 | 0.00 | 71 | 1015.9 |
| 20260506105103 | 2 | 309 | 1.6 | 4.8 | 0.00 | 0.00 | 0.00 | 71 | 1015.9 |
| 20260506104603 | 2 | 311 | 3.2 | 8.0 | 0.00 | 0.00 | 0.00 | 70 | 1015.9 |
| 20260506104103 | 1 | 282 | 1.6 | 4.8 | 0.00 | 0.00 | 0.00 | 70 | 1015.9 |
| 20260506103603 | 1 | 298 | 3.2 | 4.8 | 0.00 | 0.00 | 0.00 | 70 | 1015.9 |
| 20260506103103 | 1 | 309 | 3.2 | 4.8 | 0.00 | 0.00 | 0.00 | 70 | 1015.9 |
| 20260506102603 | 1 | 304 | 1.6 | 11.3 | 0.00 | 0.00 | 0.00 | 70 | 1015.9 |
| 20260506101603 | 1 | 317 | 1.6 | 4.8 | 0.00 | 0.00 | 0.00 | 70 | 1015.9 |
| 20260506101103 | 1 | 317 | 1.6 | 4.8 | 0.00 | 0.00 | 0.00 | 70 | 1015.9 |
| 20260506100604 | 1 | 317 | 0.0 | 3.2 | 0.00 | 0.00 | 0.00 | 70 | 1015.9 |
| 20260506095604 | 1 | 317 | 1.6 | 4.8 | 0.00 | 0.00 | 0.00 | 70 | 1015.6 |
| 20260506095103 | 1 | 317 | 1.6 | 4.8 | 0.00 | 0.00 | 0.00 | 70 | 1015.6 |
| 20260506094603 | 1 | 315 | 1.6 | 4.8 | 0.00 | 0.00 | 0.00 | 70 | 1015.6 |
| 20260506094104 | 1 | 321 | 1.6 | 4.8 | 0.00 | 0.00 | 0.00 | 71 | 1015.6 |
| 20260506093603 | 1 | 319 | 1.6 | 4.8 | 0.00 | 0.00 | 0.00 | 70 | 1015.6 |
| 20260506093103 | 1 | 302 | 3.2 | 4.8 | 0.00 | 0.00 | 0.00 | 70 | 1015.6 |
| 20260506092604 | 1 | 302 | 1.6 | 3.2 | 0.00 | 0.00 | 0.00 | 69 | 1015.6 |
| 20260506092103 | 1 | 302 | 0.0 | 3.2 | 0.00 | 0.00 | 0.00 | 69 | 1015.6 |
| 20260506091603 | 1 | 302 | 0.0 | 0.0 | 0.00 | 0.00 | 0.00 | 69 | 1015.6 |
| 20260506091103 | 1 | 302 | 0.0 | 0.0 | 0.00 | 0.00 | 0.00 | 69 | 1015.6 |
| 20260506090603 | 1 | 302 | 0.0 | 0.0 | 0.00 | 0.00 | 0.00 | 69 | 1015.6 |
| 20260506085603 | 1 | 302 | 0.0 | 0.0 | 0.00 | 0.00 | 0.00 | 69 | 1015.2 |
| 20260506085103 | 1 | 302 | 0.0 | 0.0 | 0.00 | 0.00 | 0.00 | 69 | 1015.2 |
| 20260506084103 | 1 | 302 | 0.0 | 1.6 | 0.00 | 0.00 | 0.00 | 69 | 1015.2 |
| 20260506083603 | 1 | 302 | 0.0 | 3.2 | 0.00 | 0.00 | 0.00 | 68 | 1015.2 |
| 20260506083104 | 1 | 301 | 1.6 | 4.8 | 0.00 | 0.00 | 0.00 | 68 | 1015.2 |
| 20260506082603 | 1 | 300 | 1.6 | 4.8 | 0.00 | 0.00 | 0.00 | 68 | 1015.2 |
| 20260506082103 | 1 | 299 | 0.0 | 4.8 | 0.00 | 0.00 | 0.00 | 68 | 1015.2 |
| 20260506081604 | 1 | 298 | 1.6 | 3.2 | 0.00 | 0.00 | 0.00 | 69 | 1015.2 |
| 20260506080604 | 1 | 296 | 0.0 | 3.2 | 0.00 | 0.00 | 0.00 | 69 | 1015.2 |
| 20260506073103 | 2 | 315 | 0.0 | 3.2 | 0.00 | 0.00 | 0.00 | 68 | 1015.2 |
| 20260506072603 | 2 | 315 | 1.6 | 3.2 | 0.00 | 0.00 | 0.00 | 68 | 1015.2 |
| 20260506071604 | 2 | 344 | 1.6 | 4.8 | 0.00 | 0.00 | 0.00 | 68 | 1015.2 |
| 20260506071103 | 2 | 344 | 0.0 | 0.0 | 0.00 | 0.00 | 0.00 | 67 | 1015.2 |
| 20260506070604 | 2 | 344 | 0.0 | 0.0 | 0.00 | 0.00 | 0.00 | 67 | 1015.2 |
| 20260506070104 | 2 | 344 | 0.0 | 0.0 | 0.00 | 0.00 | 0.00 | 66 | 1014.9 |
| 20260506062103 | 3 | 351 | 1.6 | 4.8 | 0.00 | 0.00 | 0.00 | 64 | 1014.9 |
| 20260506061603 | 3 | 347 | 4.8 | 12.9 | 0.00 | 0.00 | 0.00 | 63 | 1014.9 |
| 20260506061103 | 3 | 10 | 4.8 | 12.9 | 0.00 | 0.00 | 0.00 | 63 | 1014.9 |